createdAt,value
2023-04-15T00:01:13.402Z,99207.25
2023-04-15T00:03:41.362Z,99208.38
2023-04-15T00:06:09.844Z,99201.97
2023-04-15T00:08:37.145Z,99205.44
2023-04-15T00:11:05.996Z,99210.13
2023-04-15T00:13:34.210Z,99177.25
2023-04-15T00:16:01.828Z,99217.41
2023-04-15T00:18:32.269Z,99228.19
2023-04-15T00:20:59.600Z,99223.22
2023-04-15T00:23:26.862Z,99214.63
2023-04-15T00:25:54.188Z,99220.63
2023-04-15T00:28:21.697Z,99222.97
2023-04-15T00:30:48.993Z,99203.66
2023-04-15T00:33:19.182Z,99217.50
2023-04-15T00:35:47.439Z,99211.59
2023-04-15T00:38:14.760Z,99223.34
2023-04-15T00:40:42.625Z,99217.59
2023-04-15T00:43:10.255Z,99221.75
2023-04-15T00:45:37.653Z,99226.69
2023-04-15T00:48:04.990Z,99214.81
2023-04-15T00:50:33.071Z,99225.34
2023-04-15T00:53:00.350Z,99230.16
2023-04-15T00:55:28.145Z,99221.91
2023-04-15T00:57:56.362Z,99218.66
2023-04-15T01:00:23.732Z,99224.59
2023-04-15T01:02:51.128Z,99222.69
2023-04-15T01:05:19.501Z,99229.59
2023-04-15T01:07:47.984Z,99219.91
2023-04-15T01:10:15.301Z,99221.09
2023-04-15T01:12:43.562Z,99184.88
2023-04-15T01:15:11.202Z,99217.75
2023-04-15T01:17:39.325Z,99218.44
2023-04-15T01:20:10.590Z,99224.28
2023-04-15T01:22:38.495Z,99213.56
2023-04-15T01:25:13.186Z,99219.06
2023-04-15T01:27:41.172Z,99218.41
2023-04-15T01:30:09.213Z,99227.34
2023-04-15T01:32:36.978Z,99226.88
2023-04-15T01:35:04.491Z,99225.44
2023-04-15T01:37:32.102Z,99225.03
2023-04-15T01:39:59.889Z,99219.84
2023-04-15T01:42:27.779Z,99225.78
2023-04-15T01:44:55.162Z,99221.22
2023-04-15T01:47:22.574Z,99205.25
2023-04-15T01:49:49.973Z,99231.16
2023-04-15T01:52:17.257Z,99221.66
2023-04-15T01:54:44.590Z,99228.94
2023-04-15T01:57:12.964Z,99219.66
2023-04-15T01:59:41.118Z,99214.75
2023-04-15T02:02:08.535Z,99217.31
2023-04-15T02:04:35.830Z,99207.00
2023-04-15T02:07:03.075Z,99215.97
2023-04-15T02:09:30.432Z,99211.28
2023-04-15T02:11:57.757Z,99208.81
2023-04-15T02:14:25.065Z,99221.66
2023-04-15T02:16:54.984Z,99192.59
2023-04-15T02:19:22.270Z,99209.91
2023-04-15T02:21:49.528Z,99210.16
2023-04-15T02:24:18.375Z,99188.25
2023-04-15T02:26:46.758Z,99215.41
2023-04-15T02:29:14.078Z,99216.63
2023-04-15T02:31:42.308Z,99210.84
2023-04-15T02:34:09.682Z,99221.66
2023-04-15T02:36:37.011Z,99222.47
2023-04-15T02:39:05.875Z,99215.09
2023-04-15T02:41:33.166Z,99215.63
2023-04-15T02:44:00.811Z,99213.50
2023-04-15T02:46:30.823Z,99206.38
2023-04-15T02:49:00.363Z,99207.69
2023-04-15T02:51:31.300Z,99194.28
2023-04-15T02:53:58.684Z,99204.47
2023-04-15T02:56:26.135Z,99203.34
2023-04-15T02:58:56.168Z,99205.25
2023-04-15T03:01:24.327Z,99204.00
2023-04-15T03:03:51.817Z,99202.13
2023-04-15T03:06:19.332Z,99202.13
2023-04-15T03:08:46.759Z,99195.84
2023-04-15T03:11:15.319Z,99205.00
2023-04-15T03:13:43.464Z,99198.09
2023-04-15T03:16:21.900Z,99209.50
2023-04-15T03:18:49.358Z,99200.31
2023-04-15T03:21:16.712Z,99202.78
2023-04-15T03:23:45.445Z,99203.22
2023-04-15T03:26:24.885Z,99215.09
2023-04-15T03:28:53.037Z,99213.50
2023-04-15T03:31:20.583Z,99213.75
2023-04-15T03:33:48.011Z,99218.66
2023-04-15T03:36:15.755Z,99215.31
2023-04-15T03:38:43.297Z,99216.88
2023-04-15T03:41:10.653Z,99224.03
2023-04-15T03:43:37.926Z,99220.34
2023-04-15T03:46:05.333Z,99225.50
2023-04-15T03:48:32.626Z,99220.69
2023-04-15T03:50:59.913Z,99222.13
2023-04-15T03:53:27.234Z,99219.66
2023-04-15T03:55:54.531Z,99223.81
2023-04-15T03:58:21.883Z,99217.53
2023-04-15T04:00:49.102Z,99234.66
2023-04-15T04:03:16.756Z,99238.78
2023-04-15T04:05:44.614Z,99238.66
2023-04-15T04:08:13.984Z,99243.59
2023-04-15T04:10:41.429Z,99239.13
2023-04-15T04:13:08.741Z,99242.34
2023-04-15T04:15:36.376Z,99241.47
2023-04-15T04:18:03.856Z,99247.94
2023-04-15T04:20:32.182Z,99236.06
2023-04-15T04:22:59.483Z,99235.19
2023-04-15T04:25:27.361Z,99244.81
2023-04-15T04:27:54.650Z,99240.34
2023-04-15T04:30:22.339Z,99248.81
2023-04-15T04:32:50.198Z,99250.59
2023-04-15T04:35:17.535Z,99256.19
2023-04-15T04:37:44.831Z,99261.13
2023-04-15T04:40:12.644Z,99255.34
2023-04-15T04:42:40.265Z,99259.47
2023-04-15T04:45:08.734Z,99257.13
2023-04-15T04:47:36.357Z,99263.59
2023-04-15T04:50:03.821Z,99256.78
2023-04-15T04:52:31.178Z,99253.66
2023-04-15T04:54:58.434Z,99265.75
2023-04-15T04:57:25.705Z,99260.72
2023-04-15T04:59:53.009Z,99264.28
2023-04-15T05:02:20.614Z,99263.06
2023-04-15T05:04:47.967Z,99257.41
2023-04-15T05:07:15.977Z,99256.06
2023-04-15T05:09:43.247Z,99275.88
2023-04-15T05:12:15.019Z,99279.13
2023-04-15T05:14:42.465Z,99277.09
2023-04-15T05:17:09.768Z,99278.66
2023-04-15T05:19:37.106Z,99266.50
2023-04-15T05:22:04.435Z,99263.84
2023-04-15T05:24:31.726Z,99271.56
2023-04-15T05:26:58.948Z,99266.22
2023-04-15T05:29:26.292Z,99259.09
2023-04-15T05:31:53.617Z,99270.50
2023-04-15T05:34:20.900Z,99272.38
2023-04-15T05:36:48.148Z,99271.47
2023-04-15T05:39:15.548Z,99274.66
2023-04-15T05:41:42.829Z,99268.56
2023-04-15T05:44:10.233Z,99281.63
2023-04-15T05:46:37.896Z,99273.56
2023-04-15T05:49:05.194Z,99266.31
2023-04-15T05:51:32.459Z,99270.94
2023-04-15T05:53:59.814Z,99278.38
2023-04-15T05:56:27.294Z,99284.78
2023-04-15T05:58:54.578Z,99290.47
2023-04-15T06:01:22.238Z,99274.31
2023-04-15T06:03:49.752Z,99288.13
2023-04-15T06:06:17.142Z,99265.34
2023-04-15T06:08:44.491Z,99289.91
2023-04-15T06:11:11.811Z,99283.66
2023-04-15T06:13:39.044Z,99292.38
2023-04-15T06:16:06.944Z,99297.63
2023-04-15T06:18:34.263Z,99300.84
2023-04-15T06:21:01.719Z,99307.63
2023-04-15T06:23:29.060Z,99314.69
2023-04-15T06:25:56.367Z,99314.94
2023-04-15T06:28:23.629Z,99314.66
2023-04-15T06:30:50.935Z,99310.22
2023-04-15T06:35:10.720Z,99306.59
2023-04-15T06:37:38.094Z,99314.81
2023-04-15T06:40:06.299Z,99316.50
2023-04-15T06:42:34.105Z,99319.03
2023-04-15T06:45:01.775Z,99316.84
2023-04-15T06:47:29.149Z,99320.47
2023-04-15T06:49:56.499Z,99316.09
2023-04-15T06:52:23.784Z,99319.19
2023-04-15T06:54:51.212Z,99325.56
2023-04-15T06:57:18.490Z,99330.41
2023-04-15T06:59:46.163Z,99329.06
2023-04-15T07:02:14.136Z,99339.44
2023-04-15T07:04:41.515Z,99343.91
2023-04-15T07:07:09.522Z,99344.63
2023-04-15T07:09:36.884Z,99341.94
2023-04-15T07:12:04.256Z,99335.09
2023-04-15T07:14:31.878Z,99338.94
2023-04-15T07:16:59.176Z,99342.63
2023-04-15T07:19:26.683Z,99338.03
2023-04-15T07:21:54.015Z,99355.28
2023-04-15T07:24:23.248Z,99352.56
2023-04-15T07:26:50.532Z,99353.63
2023-04-15T07:29:17.869Z,99355.84
2023-04-15T07:31:45.150Z,99341.78
2023-04-15T07:34:12.455Z,99335.97
2023-04-15T07:36:40.435Z,99369.59
2023-04-15T07:39:07.850Z,99371.44
2023-04-15T07:41:35.275Z,99367.50
2023-04-15T07:44:02.706Z,99367.44
2023-04-15T07:46:30.062Z,99371.91
2023-04-15T07:48:57.505Z,99367.13
2023-04-15T07:51:24.906Z,99351.03
2023-04-15T07:53:52.913Z,99364.97
2023-04-15T07:56:20.823Z,99357.38
2023-04-15T07:58:48.087Z,99371.22
2023-04-15T08:01:15.358Z,99347.50
2023-04-15T08:03:43.247Z,99373.28
2023-04-15T08:06:10.728Z,99368.34
2023-04-15T08:08:38.007Z,99381.75
2023-04-15T08:11:05.472Z,99369.34
2023-04-15T08:13:32.767Z,99378.13
2023-04-15T08:16:22.812Z,99380.28
2023-04-15T08:18:51.590Z,99370.66
2023-04-15T08:21:19.392Z,99379.31
2023-04-15T08:23:47.591Z,99366.91
2023-04-15T08:26:14.838Z,99360.47
2023-04-15T08:28:42.466Z,99377.13
2023-04-15T08:31:09.946Z,99365.38
2023-04-15T08:33:37.289Z,99377.28
2023-04-15T08:36:04.789Z,99369.41
2023-04-15T08:38:32.182Z,99359.16
2023-04-15T08:41:00.795Z,99366.09
2023-04-15T08:43:30.395Z,99371.81
2023-04-15T08:45:59.141Z,99367.41
2023-04-15T08:48:26.641Z,99337.25
2023-04-15T08:50:53.932Z,99353.78
2023-04-15T08:53:21.609Z,99362.94
2023-04-15T08:55:52.558Z,99335.69
2023-04-15T08:58:19.909Z,99349.31
2023-04-15T09:00:48.864Z,99365.47
2023-04-15T09:03:17.557Z,99356.72
2023-04-15T09:05:44.987Z,99346.47
2023-04-15T09:08:12.773Z,99353.22
2023-04-15T09:10:40.137Z,99350.97
2023-04-15T09:13:07.424Z,99348.16
2023-04-15T09:15:34.709Z,99351.25
2023-04-15T09:18:04.491Z,99352.16
2023-04-15T09:20:31.758Z,99350.94
2023-04-15T09:22:59.064Z,99349.81
2023-04-15T09:25:28.308Z,99341.72
2023-04-15T09:28:01.196Z,99321.97
2023-04-15T09:30:29.166Z,99342.59
2023-04-15T09:33:00.870Z,99336.19
2023-04-15T09:35:28.294Z,99335.06
2023-04-15T09:38:03.713Z,99340.22
2023-04-15T09:40:41.265Z,99347.06
2023-04-15T09:43:09.743Z,99329.22
2023-04-15T09:45:37.256Z,99324.19
2023-04-15T09:48:21.589Z,99332.41
2023-04-15T09:50:49.536Z,99334.38
2023-04-15T09:53:18.311Z,99326.06
2023-04-15T09:55:52.567Z,99330.88
2023-04-15T09:58:23.733Z,99306.78
2023-04-15T10:00:51.949Z,99326.63
2023-04-15T10:03:20.719Z,99325.47
2023-04-15T10:05:49.765Z,99322.03
2023-04-15T10:08:19.161Z,99317.78
2023-04-15T10:10:47.463Z,99306.94
2023-04-15T10:13:19.564Z,99289.78
2023-04-15T10:15:53.523Z,99295.28
2023-04-15T10:18:21.884Z,99309.31
2023-04-15T10:20:52.030Z,99316.34
2023-04-15T10:23:20.577Z,99307.78
2023-04-15T10:25:49.011Z,99295.28
2023-04-15T10:28:16.918Z,99311.09
2023-04-15T10:30:44.182Z,99296.31
2023-04-15T10:33:11.444Z,99299.09
2023-04-15T10:35:39.323Z,99313.97
2023-04-15T10:38:31.466Z,99306.88
2023-04-15T10:41:34.682Z,99311.44
2023-04-15T10:44:03.577Z,99309.81
2023-04-15T10:46:38.701Z,99302.09
2023-04-15T10:49:17.079Z,99310.94
2023-04-15T10:51:46.020Z,99305.00
2023-04-15T10:54:18.075Z,99304.22
2023-04-15T10:56:45.509Z,99307.44
2023-04-15T10:59:12.780Z,99314.00
2023-04-15T11:02:15.977Z,99311.22
2023-04-15T11:04:55.950Z,99320.81
2023-04-15T11:07:36.963Z,99316.22
2023-04-15T11:10:25.705Z,99334.00
2023-04-15T11:12:54.261Z,99324.03
2023-04-15T11:15:32.546Z,99357.31
2023-04-15T11:18:19.360Z,99377.22
2023-04-15T11:20:59.655Z,99384.81
2023-04-15T11:23:39.454Z,99393.47
2023-04-15T11:26:09.926Z,99405.75
2023-04-15T11:31:27.910Z,99426.59
2023-04-15T11:33:57.032Z,99415.16
2023-04-15T11:34:21.176Z,99406.41
2023-04-15T11:36:27.946Z,99429.44
2023-04-15T11:38:55.610Z,99435.63
2023-04-15T11:41:25.988Z,99430.94
2023-04-15T11:43:53.295Z,99445.91
2023-04-15T11:46:21.970Z,99436.75
2023-04-15T11:48:49.306Z,99446.38
2023-04-15T11:51:16.721Z,99448.72
2023-04-15T11:53:47.916Z,99439.97
2023-04-15T11:56:21.972Z,99436.50
2023-04-15T11:58:52.058Z,99428.69
2023-04-15T12:01:19.492Z,99408.13
2023-04-15T12:03:47.373Z,99406.72
2023-04-15T12:06:21.803Z,99396.56
2023-04-15T12:08:59.106Z,99385.38
2023-04-15T12:11:26.255Z,99379.50
2023-04-15T12:13:57.045Z,99375.09
2023-04-15T12:16:25.034Z,99380.88
2023-04-15T12:18:52.935Z,99370.66
2023-04-15T12:21:21.044Z,99390.19
2023-04-15T12:23:50.258Z,99377.13
2023-04-15T12:26:18.337Z,99375.50
2023-04-15T12:28:45.627Z,99379.78
2023-04-15T12:31:15.813Z,99368.88
2023-04-15T12:33:43.569Z,99370.09
2023-04-15T12:36:10.931Z,99370.09
2023-04-15T12:38:38.282Z,99385.81
2023-04-15T12:41:05.652Z,99385.38
2023-04-15T12:43:33.013Z,99383.13
2023-04-15T12:46:00.280Z,99384.75
2023-04-15T12:48:27.525Z,99380.03
2023-04-15T12:50:54.823Z,99391.69
2023-04-15T12:53:22.409Z,99389.31
2023-04-15T12:55:49.757Z,99388.19
2023-04-15T12:58:17.075Z,99391.69
2023-04-15T13:00:44.831Z,99392.47
2023-04-15T13:03:12.237Z,99393.56
2023-04-15T13:05:39.911Z,99397.91
2023-04-15T13:08:07.250Z,99397.81
2023-04-15T13:10:36.572Z,99396.13
2023-04-15T13:13:04.160Z,99403.00
2023-04-15T13:15:31.539Z,99407.78
2023-04-15T13:17:58.817Z,99403.03
2023-04-15T13:20:27.092Z,99421.75
2023-04-15T13:22:54.416Z,99412.81
2023-04-15T13:25:21.839Z,99421.16
2023-04-15T13:27:50.186Z,99416.94
2023-04-15T13:30:17.662Z,99403.00
2023-04-15T13:32:44.999Z,99411.16
2023-04-15T13:35:12.338Z,99413.22
2023-04-15T13:37:39.677Z,99408.16
2023-04-15T13:40:07.858Z,99419.44
2023-04-15T13:42:35.203Z,99417.81
2023-04-15T13:45:02.499Z,99417.00
2023-04-15T13:47:29.754Z,99419.34
2023-04-15T13:49:57.602Z,99413.34
2023-04-15T13:52:24.895Z,99419.25
2023-04-15T13:55:17.991Z,99421.50
2023-04-15T13:57:39.490Z,99431.44
2023-04-15T14:00:07.562Z,99456.91
2023-04-15T14:02:35.966Z,99488.53
2023-04-15T14:05:03.469Z,99521.34
2023-04-15T14:07:31.018Z,99496.91
2023-04-15T14:09:58.411Z,99498.41
2023-04-15T14:12:25.671Z,99490.19
2023-04-15T14:14:53.063Z,99484.88
2023-04-15T14:17:20.421Z,99486.78
2023-04-15T14:19:47.694Z,99478.84
2023-04-15T14:22:14.938Z,99485.25
2023-04-15T14:24:42.246Z,99487.56
2023-04-15T14:27:11.260Z,99505.22
2023-04-15T14:29:38.616Z,99476.91
2023-04-15T14:32:12.353Z,99494.06
2023-04-15T14:34:40.743Z,99498.22
2023-04-15T14:37:08.049Z,99504.03
2023-04-15T14:39:35.323Z,99491.31
2023-04-15T14:42:02.558Z,99498.34
2023-04-15T14:47:02.031Z,99507.16
2023-04-15T14:49:30.456Z,99500.19
2023-04-15T14:51:57.704Z,99500.59
2023-04-15T14:54:24.958Z,99495.81
2023-04-15T14:56:52.229Z,99505.16
2023-04-15T14:59:19.497Z,99507.50
2023-04-15T15:01:46.830Z,99502.63
2023-04-15T15:04:14.397Z,99487.84
2023-04-15T15:06:41.950Z,99495.63
2023-04-15T15:09:09.270Z,99501.19
2023-04-15T15:11:36.578Z,99503.66
2023-04-15T15:14:03.993Z,99502.44
2023-04-15T15:16:31.729Z,99498.66
2023-04-15T15:18:59.029Z,99504.44
2023-04-15T15:21:27.154Z,99498.78
2023-04-15T15:23:54.493Z,99502.84
2023-04-15T15:26:22.036Z,99508.50
2023-04-15T15:28:50.790Z,99506.59
2023-04-15T15:31:18.117Z,99514.66
2023-04-15T15:33:45.441Z,99514.09
2023-04-15T15:36:12.754Z,99510.41
2023-04-15T15:38:40.776Z,99508.25
2023-04-15T15:41:08.041Z,99522.31
2023-04-15T15:43:35.355Z,99525.25
2023-04-15T15:46:02.913Z,99521.00
2023-04-15T15:48:30.355Z,99519.72
2023-04-15T15:50:57.682Z,99518.47
2023-04-15T15:53:25.938Z,99524.09
2023-04-15T15:55:53.968Z,99530.81
2023-04-15T15:58:21.446Z,99527.47
2023-04-15T16:00:48.770Z,99532.59
2023-04-15T16:03:16.359Z,99533.09
2023-04-15T16:05:44.019Z,99505.66
2023-04-15T16:08:11.308Z,99506.34
2023-04-15T16:10:38.620Z,99539.38
2023-04-15T16:13:05.892Z,99548.88
2023-04-15T16:15:33.301Z,99530.84
2023-04-15T16:18:00.727Z,99547.06
2023-04-15T16:20:28.938Z,99550.59
2023-04-15T16:22:57.125Z,99550.81
2023-04-15T16:25:24.928Z,99549.53
2023-04-15T16:28:01.424Z,99545.44
2023-04-15T16:30:30.724Z,99562.22
2023-04-15T16:32:58.077Z,99558.16
2023-04-15T16:35:25.382Z,99559.66
2023-04-15T16:37:52.667Z,99549.25
2023-04-15T16:40:19.969Z,99563.91
2023-04-15T16:42:47.258Z,99556.69
2023-04-15T16:45:14.581Z,99562.72
2023-04-15T16:47:41.900Z,99564.38
2023-04-15T16:50:09.704Z,99571.78
2023-04-15T16:52:37.009Z,99570.66
2023-04-15T16:55:05.227Z,99575.19
2023-04-15T16:57:40.496Z,99575.97
2023-04-15T17:00:20.288Z,99566.00
2023-04-15T17:02:47.731Z,99572.50
2023-04-15T17:05:15.118Z,99573.03
2023-04-15T17:07:42.361Z,99575.09
2023-04-15T17:10:10.153Z,99569.63
2023-04-15T17:12:37.683Z,99582.81
2023-04-15T17:15:05.684Z,99580.63
2023-04-15T17:17:33.152Z,99574.16
2023-04-15T17:20:00.473Z,99572.28
2023-04-15T17:22:27.787Z,99577.47
2023-04-15T17:24:55.054Z,99591.28
2023-04-15T17:27:22.776Z,99590.31
2023-04-15T17:29:50.003Z,99593.59
2023-04-15T17:32:17.234Z,99594.28
2023-04-15T17:34:49.520Z,99607.41
2023-04-15T17:37:18.694Z,99607.88
2023-04-15T17:39:46.280Z,99617.84
2023-04-15T17:42:13.666Z,99617.19
2023-04-15T17:44:41.218Z,99629.75
2023-04-15T17:47:08.459Z,99625.03
2023-04-15T17:49:37.841Z,99630.44
2023-04-15T17:52:05.287Z,99627.53
2023-04-15T17:54:32.558Z,99642.09
2023-04-15T17:57:00.288Z,99642.41
2023-04-15T17:59:27.902Z,99648.13
2023-04-15T18:01:55.500Z,99652.59
2023-04-15T18:04:26.486Z,99649.56
2023-04-15T18:06:54.276Z,99668.16
2023-04-15T18:09:21.801Z,99673.00
2023-04-15T18:11:49.272Z,99659.09
2023-04-15T18:14:30.550Z,99678.75
2023-04-15T18:16:58.306Z,99678.53
2023-04-15T18:19:25.856Z,99695.91
2023-04-15T18:21:53.145Z,99690.53
2023-04-15T18:24:20.651Z,99695.31
2023-04-15T18:26:49.195Z,99691.41
2023-04-15T18:29:16.899Z,99693.63
2023-04-15T18:31:44.271Z,99696.75
2023-04-15T18:34:11.544Z,99700.59
2023-04-15T18:36:38.820Z,99705.72
2023-04-15T18:39:06.224Z,99701.22
2023-04-15T18:41:33.771Z,99690.91
2023-04-15T18:44:01.080Z,99725.66
2023-04-15T18:46:28.385Z,99713.78
2023-04-15T18:48:55.654Z,99722.50
2023-04-15T18:51:22.906Z,99731.22
2023-04-15T18:53:50.485Z,99724.16
2023-04-15T18:56:17.740Z,99735.25
2023-04-15T18:59:08.586Z,99731.66
2023-04-15T19:01:32.420Z,99732.22
2023-04-15T19:03:59.894Z,99744.22
2023-04-15T19:06:28.684Z,99737.38
2023-04-15T19:08:57.983Z,99743.41
2023-04-15T19:11:26.009Z,99748.19
2023-04-15T19:13:53.408Z,99751.88
2023-04-15T19:16:21.129Z,99753.06
2023-04-15T19:18:48.464Z,99752.22
2023-04-15T19:21:15.757Z,99736.44
2023-04-15T19:23:43.219Z,99758.31
2023-04-15T19:26:11.255Z,99757.41
2023-04-15T19:28:38.538Z,99759.47
2023-04-15T19:31:05.939Z,99756.34
2023-04-15T19:33:33.356Z,99766.25
2023-04-15T19:36:05.551Z,99771.88
2023-04-15T19:38:34.984Z,99759.88
2023-04-15T19:41:02.322Z,99777.72
2023-04-15T19:43:29.866Z,99777.38
2023-04-15T19:45:57.272Z,99772.75
2023-04-15T19:48:24.760Z,99776.81
2023-04-15T19:50:52.067Z,99775.59
2023-04-15T19:53:19.324Z,99781.13
2023-04-15T19:55:48.406Z,99791.88
2023-04-15T19:58:16.173Z,99785.97
2023-04-15T20:00:43.534Z,99791.97
2023-04-15T20:03:10.991Z,99776.03
2023-04-15T20:05:38.386Z,99786.69
2023-04-15T20:08:05.744Z,99782.75
2023-04-15T20:10:33.020Z,99791.94
2023-04-15T20:13:00.523Z,99796.66
2023-04-15T20:15:27.828Z,99793.97
2023-04-15T20:17:55.207Z,99795.72
2023-04-15T20:20:22.582Z,99797.94
2023-04-15T20:22:49.927Z,99803.50
2023-04-15T20:25:17.251Z,99800.81
2023-04-15T20:27:44.760Z,99796.88
2023-04-15T20:30:12.111Z,99803.81
2023-04-15T20:32:39.436Z,99810.31
2023-04-15T20:35:07.303Z,99812.06
2023-04-15T20:37:34.879Z,99795.53
2023-04-15T20:40:02.422Z,99799.00
2023-04-15T20:42:34.335Z,99807.81
2023-04-15T20:45:02.144Z,99813.84
2023-04-15T20:47:30.000Z,99809.44
2023-04-15T20:49:57.384Z,99821.91
2023-04-15T20:52:24.628Z,99826.34
2023-04-15T20:54:52.010Z,99820.53
2023-04-15T20:57:20.230Z,99840.13
2023-04-15T20:59:47.595Z,99848.47
2023-04-15T21:02:14.999Z,99854.75
2023-04-15T21:04:42.357Z,99857.63
2023-04-15T21:07:10.023Z,99860.13
2023-04-15T21:09:41.317Z,99865.16
2023-04-15T21:12:09.304Z,99858.56
2023-04-15T21:14:37.090Z,99863.09
2023-04-15T21:17:09.256Z,99874.00
2023-04-15T21:19:37.615Z,99879.00
2023-04-15T21:22:04.985Z,99863.88
2023-04-15T21:24:32.243Z,99865.91
2023-04-15T21:26:59.493Z,99874.75
2023-04-15T21:29:26.825Z,99878.22
2023-04-15T21:31:54.225Z,99880.25
2023-04-15T21:34:21.650Z,99884.69
2023-04-15T21:36:49.041Z,99885.03
2023-04-15T21:39:17.140Z,99873.72
2023-04-15T21:41:44.470Z,99889.94
2023-04-15T21:44:14.401Z,99893.41
2023-04-15T21:46:46.005Z,99882.72
2023-04-15T21:49:13.959Z,99861.91
2023-04-15T21:51:41.327Z,99875.94
2023-04-15T21:54:08.610Z,99901.63
2023-04-15T21:56:36.873Z,99889.50
2023-04-15T21:59:04.402Z,99892.34
2023-04-15T22:01:32.028Z,99906.88
2023-04-15T22:03:59.665Z,99900.88
2023-04-15T22:06:27.200Z,99903.25
2023-04-15T22:08:57.565Z,99903.25
2023-04-15T22:11:30.366Z,99900.25
2023-04-15T22:13:58.376Z,99897.44
2023-04-15T22:16:26.546Z,99893.03
2023-04-15T22:18:54.843Z,99909.56
2023-04-15T22:21:22.305Z,99896.47
2023-04-15T22:23:49.613Z,99908.63
2023-04-15T22:26:16.892Z,99907.50
2023-04-15T22:28:44.192Z,99908.13
2023-04-15T22:31:11.634Z,99903.88
2023-04-15T22:33:39.104Z,99902.47
2023-04-15T22:36:06.479Z,99912.56
2023-04-15T22:38:33.787Z,99912.56
2023-04-15T22:41:01.315Z,99915.88
2023-04-15T22:43:28.664Z,99918.41
2023-04-15T22:45:56.632Z,99924.22
2023-04-15T22:48:24.036Z,99922.03
2023-04-15T22:50:51.643Z,99922.97
2023-04-15T22:53:19.011Z,99924.53
2023-04-15T22:55:49.488Z,99923.91
2023-04-15T22:58:18.356Z,99922.81
2023-04-15T23:00:45.911Z,99916.31
2023-04-15T23:03:13.334Z,99924.72
2023-04-15T23:05:41.294Z,99922.34
2023-04-15T23:08:08.749Z,99926.59
2023-04-15T23:10:36.023Z,99908.75
2023-04-15T23:13:03.263Z,99911.09
2023-04-15T23:15:30.570Z,99913.97
2023-04-15T23:17:57.991Z,99910.63
2023-04-15T23:20:25.369Z,99912.66
2023-04-15T23:22:52.640Z,99923.06
2023-04-15T23:25:22.291Z,99917.72
2023-04-15T23:27:49.609Z,99905.56
2023-04-15T23:30:16.936Z,99914.72
2023-04-15T23:32:44.306Z,99898.00
2023-04-15T23:35:11.723Z,99918.00
2023-04-15T23:37:39.004Z,99918.78
2023-04-15T23:40:07.011Z,99926.97
2023-04-15T23:42:34.295Z,99921.63
2023-04-15T23:45:01.595Z,99929.16
2023-04-15T23:47:28.936Z,99923.97
2023-04-15T23:49:56.522Z,99922.84
2023-04-15T23:52:24.053Z,99923.47
2023-04-15T23:54:51.448Z,99920.78
2023-04-15T23:57:18.886Z,99919.22
2023-04-15T23:59:46.256Z,99920.16
